Ballymahon, Ireland
Current Conditions -  °F | °C
As of 12:00 PM on Friday 21 Nov 2014 (Local Time) from EIKN Reporting Station
Drizzle Drizzle  
Wind Chill:   Ceiling: 300
Heat Index:   Visibility: 1.8mi
Dew Point:   Wind: 20mph
Humidity: 100%   Direction: 120°ESE
Pressure: 29.71"   Gusts: 32mph
Location:  53.56°N, 7.77°W
Report Text: EIKN 211200Z 12017G28KT 3000 -DZ OVC003 07/07 Q1006 NOSIG
Loading
Personal Weather Stations






























Interactive Weather Map New forecast layout! Learn more

10-Day Weather Forecast

Advertisements
Track Severe Weather on mobile